sensor_id;sensor_type;location;lat;lon;timestamp;temperature;humidity
23579;DHT22;11967;50.852;4.400;2023-07-13T00:00:19;22.00;99.90
23579;DHT22;11967;50.852;4.400;2023-07-13T00:02:48;21.90;99.90
23579;DHT22;11967;50.852;4.400;2023-07-13T00:05:14;21.80;99.90
23579;DHT22;11967;50.852;4.400;2023-07-13T00:07:40;21.60;99.90
23579;DHT22;11967;50.852;4.400;2023-07-13T00:10:06;21.70;99.90
23579;DHT22;11967;50.852;4.400;2023-07-13T00:12:34;21.70;99.90
23579;DHT22;11967;50.852;4.400;2023-07-13T00:15:03;21.70;99.90
23579;DHT22;11967;50.852;4.400;2023-07-13T00:17:29;21.70;99.90
23579;DHT22;11967;50.852;4.400;2023-07-13T00:19:56;21.70;99.90
23579;DHT22;11967;50.852;4.400;2023-07-13T00:22:23;21.70;99.90
23579;DHT22;11967;50.852;4.400;2023-07-13T00:24:51;21.60;99.90
23579;DHT22;11967;50.852;4.400;2023-07-13T00:27:17;21.60;99.90
23579;DHT22;11967;50.852;4.400;2023-07-13T00:29:43;21.70;99.90
23579;DHT22;11967;50.852;4.400;2023-07-13T00:32:11;21.70;99.90
23579;DHT22;11967;50.852;4.400;2023-07-13T00:34:38;21.80;99.90
23579;DHT22;11967;50.852;4.400;2023-07-13T00:37:05;21.70;99.90
23579;DHT22;11967;50.852;4.400;2023-07-13T00:39:34;21.80;99.90
23579;DHT22;11967;50.852;4.400;2023-07-13T00:42:01;21.80;99.90
23579;DHT22;11967;50.852;4.400;2023-07-13T00:44:28;21.80;99.90
23579;DHT22;11967;50.852;4.400;2023-07-13T00:46:54;21.70;99.90
23579;DHT22;11967;50.852;4.400;2023-07-13T00:49:23;21.60;99.90
23579;DHT22;11967;50.852;4.400;2023-07-13T00:52:05;21.50;99.90
23579;DHT22;11967;50.852;4.400;2023-07-13T00:54:39;21.50;99.90
23579;DHT22;11967;50.852;4.400;2023-07-13T00:57:09;21.50;99.90
23579;DHT22;11967;50.852;4.400;2023-07-13T00:59:38;21.60;99.90
23579;DHT22;11967;50.852;4.400;2023-07-13T01:02:05;21.70;99.90
23579;DHT22;11967;50.852;4.400;2023-07-13T01:04:31;21.70;99.90
23579;DHT22;11967;50.852;4.400;2023-07-13T01:06:57;21.80;99.90
23579;DHT22;11967;50.852;4.400;2023-07-13T01:09:23;21.80;99.90
23579;DHT22;11967;50.852;4.400;2023-07-13T01:11:49;21.70;99.90
23579;DHT22;11967;50.852;4.400;2023-07-13T01:14:15;21.80;99.90
23579;DHT22;11967;50.852;4.400;2023-07-13T01:16:43;21.60;99.90
23579;DHT22;11967;50.852;4.400;2023-07-13T01:19:33;21.50;99.90
23579;DHT22;11967;50.852;4.400;2023-07-13T01:22:10;21.50;99.90
23579;DHT22;11967;50.852;4.400;2023-07-13T01:24:37;21.40;99.90
23579;DHT22;11967;50.852;4.400;2023-07-13T01:27:06;21.50;99.90
23579;DHT22;11967;50.852;4.400;2023-07-13T01:29:41;21.50;99.90
23579;DHT22;11967;50.852;4.400;2023-07-13T01:32:15;21.40;99.90
23579;DHT22;11967;50.852;4.400;2023-07-13T01:34:48;21.40;99.90
23579;DHT22;11967;50.852;4.400;2023-07-13T01:37:14;21.60;99.90
23579;DHT22;11967;50.852;4.400;2023-07-13T01:39:42;21.60;99.90
23579;DHT22;11967;50.852;4.400;2023-07-13T01:42:14;21.50;99.90
23579;DHT22;11967;50.852;4.400;2023-07-13T01:44:41;21.70;99.90
23579;DHT22;11967;50.852;4.400;2023-07-13T01:47:08;21.50;99.90
23579;DHT22;11967;50.852;4.400;2023-07-13T01:49:33;21.50;99.90
23579;DHT22;11967;50.852;4.400;2023-07-13T01:51:59;21.50;99.90
23579;DHT22;11967;50.852;4.400;2023-07-13T01:54:24;21.50;99.90
23579;DHT22;11967;50.852;4.400;2023-07-13T01:56:50;21.50;99.90
23579;DHT22;11967;50.852;4.400;2023-07-13T01:59:17;21.60;99.90
23579;DHT22;11967;50.852;4.400;2023-07-13T02:01:42;21.40;99.90
23579;DHT22;11967;50.852;4.400;2023-07-13T02:04:08;21.50;99.90
23579;DHT22;11967;50.852;4.400;2023-07-13T02:06:33;21.50;99.90
23579;DHT22;11967;50.852;4.400;2023-07-13T02:09:00;21.60;99.90
23579;DHT22;11967;50.852;4.400;2023-07-13T02:11:26;21.60;99.90
23579;DHT22;11967;50.852;4.400;2023-07-13T02:14:01;21.50;99.90
23579;DHT22;11967;50.852;4.400;2023-07-13T02:16:29;21.40;99.90
23579;DHT22;11967;50.852;4.400;2023-07-13T02:19:02;21.40;99.90
23579;DHT22;11967;50.852;4.400;2023-07-13T02:21:31;21.40;99.90
23579;DHT22;11967;50.852;4.400;2023-07-13T02:23:57;21.40;99.90
23579;DHT22;11967;50.852;4.400;2023-07-13T02:26:23;21.40;99.90
23579;DHT22;11967;50.852;4.400;2023-07-13T02:28:49;21.40;99.90
23579;DHT22;11967;50.852;4.400;2023-07-13T02:31:16;21.30;99.90
23579;DHT22;11967;50.852;4.400;2023-07-13T02:33:41;21.40;99.90
23579;DHT22;11967;50.852;4.400;2023-07-13T02:36:07;21.30;99.90
23579;DHT22;11967;50.852;4.400;2023-07-13T02:38:34;21.30;99.90
23579;DHT22;11967;50.852;4.400;2023-07-13T02:41:01;21.30;99.90
23579;DHT22;11967;50.852;4.400;2023-07-13T02:43:27;21.30;99.90
23579;DHT22;11967;50.852;4.400;2023-07-13T02:45:53;21.30;99.90
23579;DHT22;11967;50.852;4.400;2023-07-13T02:48:18;21.30;99.90
23579;DHT22;11967;50.852;4.400;2023-07-13T02:50:44;21.30;99.90
23579;DHT22;11967;50.852;4.400;2023-07-13T02:53:10;21.50;99.90
23579;DHT22;11967;50.852;4.400;2023-07-13T02:55:37;21.50;99.90
23579;DHT22;11967;50.852;4.400;2023-07-13T02:58:03;21.40;99.90
23579;DHT22;11967;50.852;4.400;2023-07-13T03:00:29;21.30;99.90
23579;DHT22;11967;50.852;4.400;2023-07-13T03:02:55;21.20;99.90
23579;DHT22;11967;50.852;4.400;2023-07-13T03:05:23;21.20;99.90
23579;DHT22;11967;50.852;4.400;2023-07-13T03:07:49;21.20;99.90
23579;DHT22;11967;50.852;4.400;2023-07-13T03:10:14;21.20;99.90
23579;DHT22;11967;50.852;4.400;2023-07-13T03:12:42;21.00;99.90
23579;DHT22;11967;50.852;4.400;2023-07-13T03:15:07;21.10;99.90
23579;DHT22;11967;50.852;4.400;2023-07-13T03:17:33;20.90;99.90
23579;DHT22;11967;50.852;4.400;2023-07-13T03:19:59;20.90;99.90
23579;DHT22;11967;50.852;4.400;2023-07-13T03:22:24;21.00;99.90
23579;DHT22;11967;50.852;4.400;2023-07-13T03:24:50;20.90;99.90
23579;DHT22;11967;50.852;4.400;2023-07-13T03:27:17;20.90;99.90
23579;DHT22;11967;50.852;4.400;2023-07-13T03:29:43;20.90;99.90
23579;DHT22;11967;50.852;4.400;2023-07-13T03:32:09;21.00;99.90
23579;DHT22;11967;50.852;4.400;2023-07-13T03:34:35;21.00;99.90
23579;DHT22;11967;50.852;4.400;2023-07-13T03:37:00;21.10;99.90
23579;DHT22;11967;50.852;4.400;2023-07-13T03:39:26;21.20;99.90
23579;DHT22;11967;50.852;4.400;2023-07-13T03:41:52;21.10;99.90
23579;DHT22;11967;50.852;4.400;2023-07-13T03:44:18;21.20;99.90
23579;DHT22;11967;50.852;4.400;2023-07-13T03:46:44;21.10;99.90
23579;DHT22;11967;50.852;4.400;2023-07-13T03:49:10;21.10;99.90
23579;DHT22;11967;50.852;4.400;2023-07-13T03:51:36;21.00;99.90
23579;DHT22;11967;50.852;4.400;2023-07-13T03:54:02;21.00;99.90
23579;DHT22;11967;50.852;4.400;2023-07-13T03:56:29;20.90;99.90
23579;DHT22;11967;50.852;4.400;2023-07-13T03:58:56;21.00;99.90
23579;DHT22;11967;50.852;4.400;2023-07-13T04:01:23;21.10;99.90
23579;DHT22;11967;50.852;4.400;2023-07-13T04:03:50;21.00;99.90
23579;DHT22;11967;50.852;4.400;2023-07-13T04:06:20;21.00;99.90
23579;DHT22;11967;50.852;4.400;2023-07-13T04:08:48;20.90;99.90
23579;DHT22;11967;50.852;4.400;2023-07-13T04:11:14;20.90;99.90
23579;DHT22;11967;50.852;4.400;2023-07-13T04:13:40;20.90;99.90
23579;DHT22;11967;50.852;4.400;2023-07-13T04:16:05;20.90;99.90
23579;DHT22;11967;50.852;4.400;2023-07-13T04:18:31;20.80;99.90
23579;DHT22;11967;50.852;4.400;2023-07-13T04:20:57;20.80;99.90
23579;DHT22;11967;50.852;4.400;2023-07-13T04:23:22;20.80;99.90
23579;DHT22;11967;50.852;4.400;2023-07-13T04:25:49;20.90;99.90
23579;DHT22;11967;50.852;4.400;2023-07-13T04:28:20;20.90;99.90
23579;DHT22;11967;50.852;4.400;2023-07-13T04:30:46;20.90;99.90
23579;DHT22;11967;50.852;4.400;2023-07-13T04:33:12;20.80;99.90
23579;DHT22;11967;50.852;4.400;2023-07-13T04:35:39;20.80;99.90
23579;DHT22;11967;50.852;4.400;2023-07-13T04:38:07;20.90;99.90
23579;DHT22;11967;50.852;4.400;2023-07-13T04:40:34;20.90;99.90
23579;DHT22;11967;50.852;4.400;2023-07-13T04:43:00;20.90;99.90
23579;DHT22;11967;50.852;4.400;2023-07-13T04:45:27;21.00;99.90
23579;DHT22;11967;50.852;4.400;2023-07-13T04:47:52;21.10;99.90
23579;DHT22;11967;50.852;4.400;2023-07-13T04:50:18;21.10;99.90
23579;DHT22;11967;50.852;4.400;2023-07-13T04:52:49;20.90;99.90
23579;DHT22;11967;50.852;4.400;2023-07-13T04:55:14;20.80;99.90
23579;DHT22;11967;50.852;4.400;2023-07-13T04:57:40;20.70;99.90
23579;DHT22;11967;50.852;4.400;2023-07-13T05:00:06;20.80;99.90
23579;DHT22;11967;50.852;4.400;2023-07-13T05:02:33;20.90;99.90
23579;DHT22;11967;50.852;4.400;2023-07-13T05:05:00;21.10;99.90
23579;DHT22;11967;50.852;4.400;2023-07-13T05:07:26;21.10;99.90
23579;DHT22;11967;50.852;4.400;2023-07-13T05:09:52;21.10;99.90
23579;DHT22;11967;50.852;4.400;2023-07-13T05:12:18;21.10;99.90
23579;DHT22;11967;50.852;4.400;2023-07-13T05:14:43;21.10;99.90
23579;DHT22;11967;50.852;4.400;2023-07-13T05:17:09;20.90;99.90
23579;DHT22;11967;50.852;4.400;2023-07-13T05:19:35;21.00;99.90
23579;DHT22;11967;50.852;4.400;2023-07-13T05:22:01;20.90;99.90
23579;DHT22;11967;50.852;4.400;2023-07-13T05:24:28;21.00;99.90
23579;DHT22;11967;50.852;4.400;2023-07-13T05:26:54;21.10;99.90
23579;DHT22;11967;50.852;4.400;2023-07-13T05:29:20;21.20;99.90
23579;DHT22;11967;50.852;4.400;2023-07-13T05:31:46;21.30;99.90
23579;DHT22;11967;50.852;4.400;2023-07-13T05:34:12;21.10;99.90
23579;DHT22;11967;50.852;4.400;2023-07-13T05:36:37;21.00;99.90
23579;DHT22;11967;50.852;4.400;2023-07-13T05:39:04;20.90;99.90
23579;DHT22;11967;50.852;4.400;2023-07-13T05:41:29;20.90;99.90
23579;DHT22;11967;50.852;4.400;2023-07-13T05:43:55;20.90;99.90
23579;DHT22;11967;50.852;4.400;2023-07-13T05:46:21;21.00;99.90
23579;DHT22;11967;50.852;4.400;2023-07-13T05:48:47;21.00;99.90
23579;DHT22;11967;50.852;4.400;2023-07-13T05:51:13;21.10;99.90
23579;DHT22;11967;50.852;4.400;2023-07-13T05:53:39;20.90;99.90
23579;DHT22;11967;50.852;4.400;2023-07-13T05:56:05;20.90;99.90
23579;DHT22;11967;50.852;4.400;2023-07-13T05:58:30;21.10;99.90
23579;DHT22;11967;50.852;4.400;2023-07-13T06:01:01;21.00;99.90
23579;DHT22;11967;50.852;4.400;2023-07-13T06:03:28;21.00;99.90
23579;DHT22;11967;50.852;4.400;2023-07-13T06:05:54;21.00;99.90
23579;DHT22;11967;50.852;4.400;2023-07-13T06:08:19;20.90;99.90
23579;DHT22;11967;50.852;4.400;2023-07-13T06:10:45;20.90;99.90
23579;DHT22;11967;50.852;4.400;2023-07-13T06:13:11;20.90;99.90
23579;DHT22;11967;50.852;4.400;2023-07-13T06:15:36;21.00;99.90
23579;DHT22;11967;50.852;4.400;2023-07-13T06:18:02;20.90;99.90
23579;DHT22;11967;50.852;4.400;2023-07-13T06:20:29;21.00;99.90
23579;DHT22;11967;50.852;4.400;2023-07-13T06:22:55;20.90;99.90
23579;DHT22;11967;50.852;4.400;2023-07-13T06:25:20;20.90;99.90
23579;DHT22;11967;50.852;4.400;2023-07-13T06:27:46;21.00;99.90
23579;DHT22;11967;50.852;4.400;2023-07-13T06:30:12;21.10;99.90
23579;DHT22;11967;50.852;4.400;2023-07-13T06:32:38;21.10;99.90
23579;DHT22;11967;50.852;4.400;2023-07-13T06:35:03;21.00;99.90
23579;DHT22;11967;50.852;4.400;2023-07-13T06:37:29;20.80;99.90
23579;DHT22;11967;50.852;4.400;2023-07-13T06:39:55;20.70;99.90
23579;DHT22;11967;50.852;4.400;2023-07-13T06:42:20;20.60;99.90
23579;DHT22;11967;50.852;4.400;2023-07-13T06:44:46;20.50;99.90
23579;DHT22;11967;50.852;4.400;2023-07-13T06:47:12;20.40;99.90
23579;DHT22;11967;50.852;4.400;2023-07-13T06:49:37;20.40;99.90
23579;DHT22;11967;50.852;4.400;2023-07-13T06:52:03;20.30;99.90
23579;DHT22;11967;50.852;4.400;2023-07-13T06:54:29;20.40;99.90
23579;DHT22;11967;50.852;4.400;2023-07-13T06:56:55;20.30;99.90
23579;DHT22;11967;50.852;4.400;2023-07-13T06:59:20;20.30;99.90
23579;DHT22;11967;50.852;4.400;2023-07-13T07:01:46;20.30;99.90
23579;DHT22;11967;50.852;4.400;2023-07-13T07:04:12;20.30;99.90
23579;DHT22;11967;50.852;4.400;2023-07-13T07:06:37;20.30;99.90
23579;DHT22;11967;50.852;4.400;2023-07-13T07:09:04;20.30;99.90
23579;DHT22;11967;50.852;4.400;2023-07-13T07:11:30;20.40;99.90
23579;DHT22;11967;50.852;4.400;2023-07-13T07:13:55;20.40;99.90
23579;DHT22;11967;50.852;4.400;2023-07-13T07:16:21;20.40;99.90
23579;DHT22;11967;50.852;4.400;2023-07-13T07:18:47;20.40;99.90
23579;DHT22;11967;50.852;4.400;2023-07-13T07:21:13;20.40;99.90
23579;DHT22;11967;50.852;4.400;2023-07-13T07:23:40;20.40;99.90
23579;DHT22;11967;50.852;4.400;2023-07-13T07:26:05;20.50;99.90
23579;DHT22;11967;50.852;4.400;2023-07-13T07:28:34;20.60;99.90
23579;DHT22;11967;50.852;4.400;2023-07-13T07:30:59;20.50;99.90
23579;DHT22;11967;50.852;4.400;2023-07-13T07:33:25;20.50;99.90
23579;DHT22;11967;50.852;4.400;2023-07-13T07:35:51;20.50;99.90
23579;DHT22;11967;50.852;4.400;2023-07-13T07:38:16;20.50;99.90
23579;DHT22;11967;50.852;4.400;2023-07-13T07:40:42;20.60;99.90
23579;DHT22;11967;50.852;4.400;2023-07-13T07:43:11;20.60;99.90
23579;DHT22;11967;50.852;4.400;2023-07-13T07:45:38;20.60;99.90
23579;DHT22;11967;50.852;4.400;2023-07-13T07:48:05;20.70;99.90
23579;DHT22;11967;50.852;4.400;2023-07-13T07:50:31;20.60;99.90
23579;DHT22;11967;50.852;4.400;2023-07-13T07:52:57;20.60;99.90
23579;DHT22;11967;50.852;4.400;2023-07-13T07:55:24;20.60;99.90
23579;DHT22;11967;50.852;4.400;2023-07-13T07:57:54;20.60;99.90
23579;DHT22;11967;50.852;4.400;2023-07-13T08:00:20;20.80;99.90
23579;DHT22;11967;50.852;4.400;2023-07-13T08:02:46;20.80;99.90
23579;DHT22;11967;50.852;4.400;2023-07-13T08:05:12;20.90;99.90
23579;DHT22;11967;50.852;4.400;2023-07-13T08:07:38;20.90;99.90
23579;DHT22;11967;50.852;4.400;2023-07-13T08:10:05;20.80;99.90
23579;DHT22;11967;50.852;4.400;2023-07-13T08:12:36;20.70;99.90
23579;DHT22;11967;50.852;4.400;2023-07-13T08:15:02;20.80;99.90
23579;DHT22;11967;50.852;4.400;2023-07-13T08:17:28;20.80;99.90
23579;DHT22;11967;50.852;4.400;2023-07-13T08:19:53;20.80;99.90
23579;DHT22;11967;50.852;4.400;2023-07-13T08:22:19;20.90;99.90
23579;DHT22;11967;50.852;4.400;2023-07-13T08:25:01;20.90;99.90
23579;DHT22;11967;50.852;4.400;2023-07-13T08:27:28;21.00;99.90
23579;DHT22;11967;50.852;4.400;2023-07-13T08:29:54;20.90;99.90
23579;DHT22;11967;50.852;4.400;2023-07-13T08:32:21;20.80;99.90
23579;DHT22;11967;50.852;4.400;2023-07-13T08:34:47;20.90;99.90
23579;DHT22;11967;50.852;4.400;2023-07-13T08:37:13;20.90;99.90
23579;DHT22;11967;50.852;4.400;2023-07-13T08:39:39;21.00;99.90
23579;DHT22;11967;50.852;4.400;2023-07-13T08:42:21;21.00;99.90
23579;DHT22;11967;50.852;4.400;2023-07-13T08:44:57;21.00;99.90
23579;DHT22;11967;50.852;4.400;2023-07-13T08:47:26;21.00;99.90
23579;DHT22;11967;50.852;4.400;2023-07-13T08:49:53;21.00;99.90
23579;DHT22;11967;50.852;4.400;2023-07-13T08:52:26;21.00;99.90
23579;DHT22;11967;50.852;4.400;2023-07-13T08:54:56;21.20;99.90
23579;DHT22;11967;50.852;4.400;2023-07-13T08:57:34;21.30;99.90
23579;DHT22;11967;50.852;4.400;2023-07-13T09:00:07;21.30;99.90
23579;DHT22;11967;50.852;4.400;2023-07-13T09:05:27;21.30;99.90
23579;DHT22;11967;50.852;4.400;2023-07-13T09:10:32;21.70;99.90
23579;DHT22;11967;50.852;4.400;2023-07-13T09:13:26;21.80;99.90
23579;DHT22;11967;50.852;4.400;2023-07-13T09:15:54;21.90;99.90
23579;DHT22;11967;50.852;4.400;2023-07-13T09:18:49;21.70;99.90
23579;DHT22;11967;50.852;4.400;2023-07-13T09:21:23;21.60;99.90
23579;DHT22;11967;50.852;4.400;2023-07-13T09:23:53;21.80;99.90
23579;DHT22;11967;50.852;4.400;2023-07-13T09:26:21;21.80;99.90
23579;DHT22;11967;50.852;4.400;2023-07-13T09:29:00;21.90;99.90
23579;DHT22;11967;50.852;4.400;2023-07-13T09:31:37;21.90;99.90
23579;DHT22;11967;50.852;4.400;2023-07-13T09:34:09;22.00;99.90
23579;DHT22;11967;50.852;4.400;2023-07-13T09:36:35;22.10;99.90
23579;DHT22;11967;50.852;4.400;2023-07-13T09:39:05;22.20;99.90
23579;DHT22;11967;50.852;4.400;2023-07-13T09:41:48;22.10;99.90
23579;DHT22;11967;50.852;4.400;2023-07-13T09:44:29;22.10;99.90
23579;DHT22;11967;50.852;4.400;2023-07-13T09:46:57;22.00;99.90
23579;DHT22;11967;50.852;4.400;2023-07-13T09:49:28;22.00;99.90
23579;DHT22;11967;50.852;4.400;2023-07-13T09:52:03;22.00;99.90
23579;DHT22;11967;50.852;4.400;2023-07-13T09:54:34;22.00;99.90
23579;DHT22;11967;50.852;4.400;2023-07-13T09:57:02;22.10;99.90
23579;DHT22;11967;50.852;4.400;2023-07-13T09:59:34;22.20;99.90
23579;DHT22;11967;50.852;4.400;2023-07-13T10:02:00;22.40;99.90
23579;DHT22;11967;50.852;4.400;2023-07-13T10:04:30;22.40;99.90
23579;DHT22;11967;50.852;4.400;2023-07-13T10:07:07;22.50;99.90
23579;DHT22;11967;50.852;4.400;2023-07-13T10:09:35;22.40;99.90
23579;DHT22;11967;50.852;4.400;2023-07-13T10:12:00;22.40;99.90
23579;DHT22;11967;50.852;4.400;2023-07-13T10:14:27;22.50;99.90
23579;DHT22;11967;50.852;4.400;2023-07-13T10:16:59;22.50;99.90
23579;DHT22;11967;50.852;4.400;2023-07-13T10:19:34;22.30;99.90
23579;DHT22;11967;50.852;4.400;2023-07-13T10:22:02;22.40;99.90
23579;DHT22;11967;50.852;4.400;2023-07-13T10:24:37;22.50;99.90
23579;DHT22;11967;50.852;4.400;2023-07-13T10:27:32;22.60;99.90
23579;DHT22;11967;50.852;4.400;2023-07-13T10:32:36;22.50;99.90
23579;DHT22;11967;50.852;4.400;2023-07-13T10:35:01;22.40;99.90
23579;DHT22;11967;50.852;4.400;2023-07-13T10:37:42;22.40;99.90
23579;DHT22;11967;50.852;4.400;2023-07-13T10:40:29;22.50;99.90
23579;DHT22;11967;50.852;4.400;2023-07-13T10:42:59;22.40;99.90
23579;DHT22;11967;50.852;4.400;2023-07-13T10:45:27;22.30;99.90
23579;DHT22;11967;50.852;4.400;2023-07-13T10:47:54;22.20;99.90
23579;DHT22;11967;50.852;4.400;2023-07-13T10:50:27;22.00;99.90
23579;DHT22;11967;50.852;4.400;2023-07-13T10:53:03;22.00;99.90
23579;DHT22;11967;50.852;4.400;2023-07-13T10:55:37;22.10;99.90
23579;DHT22;11967;50.852;4.400;2023-07-13T11:03:47;22.10;99.90
23579;DHT22;11967;50.852;4.400;2023-07-13T11:13:58;22.30;99.90
23579;DHT22;11967;50.852;4.400;2023-07-13T11:16:46;22.40;99.90
23579;DHT22;11967;50.852;4.400;2023-07-13T11:24:48;22.50;99.90
23579;DHT22;11967;50.852;4.400;2023-07-13T11:27:32;22.60;99.90
23579;DHT22;11967;50.852;4.400;2023-07-13T11:30:24;22.70;99.90
23579;DHT22;11967;50.852;4.400;2023-07-13T11:35:34;22.70;99.90
23579;DHT22;11967;50.852;4.400;2023-07-13T11:38:03;22.70;99.90
23579;DHT22;11967;50.852;4.400;2023-07-13T11:40:34;22.70;99.90
23579;DHT22;11967;50.852;4.400;2023-07-13T11:43:01;22.60;99.90
23579;DHT22;11967;50.852;4.400;2023-07-13T11:45:27;22.50;99.90
23579;DHT22;11967;50.852;4.400;2023-07-13T11:47:54;22.50;99.90
23579;DHT22;11967;50.852;4.400;2023-07-13T11:50:23;22.50;99.90
23579;DHT22;11967;50.852;4.400;2023-07-13T11:52:50;22.50;99.90
23579;DHT22;11967;50.852;4.400;2023-07-13T11:55:20;22.50;99.90
23579;DHT22;11967;50.852;4.400;2023-07-13T11:58:07;22.50;99.90
23579;DHT22;11967;50.852;4.400;2023-07-13T12:00:35;22.40;99.90
23579;DHT22;11967;50.852;4.400;2023-07-13T12:03:03;22.30;99.90
23579;DHT22;11967;50.852;4.400;2023-07-13T12:05:30;22.40;99.90
23579;DHT22;11967;50.852;4.400;2023-07-13T12:07:58;22.30;99.90
23579;DHT22;11967;50.852;4.400;2023-07-13T12:10:27;22.20;99.90
23579;DHT22;11967;50.852;4.400;2023-07-13T12:13:04;22.20;99.90
23579;DHT22;11967;50.852;4.400;2023-07-13T12:15:36;22.20;99.90
23579;DHT22;11967;50.852;4.400;2023-07-13T12:18:02;22.20;99.90
23579;DHT22;11967;50.852;4.400;2023-07-13T12:20:35;22.30;99.90
23579;DHT22;11967;50.852;4.400;2023-07-13T12:23:05;22.30;99.90
23579;DHT22;11967;50.852;4.400;2023-07-13T12:25:32;22.30;99.90
23579;DHT22;11967;50.852;4.400;2023-07-13T12:27:58;22.30;99.90
23579;DHT22;11967;50.852;4.400;2023-07-13T12:30:30;22.40;99.90
23579;DHT22;11967;50.852;4.400;2023-07-13T12:33:11;22.20;99.90
23579;DHT22;11967;50.852;4.400;2023-07-13T12:35:48;22.20;99.90
23579;DHT22;11967;50.852;4.400;2023-07-13T12:38:16;22.10;99.90
23579;DHT22;11967;50.852;4.400;2023-07-13T12:40:42;22.00;99.90
23579;DHT22;11967;50.852;4.400;2023-07-13T12:43:12;22.00;99.90
23579;DHT22;11967;50.852;4.400;2023-07-13T12:45:39;21.80;99.90
23579;DHT22;11967;50.852;4.400;2023-07-13T12:48:20;21.70;99.90
23579;DHT22;11967;50.852;4.400;2023-07-13T12:50:48;21.70;99.90
23579;DHT22;11967;50.852;4.400;2023-07-13T12:53:16;21.60;99.90
23579;DHT22;11967;50.852;4.400;2023-07-13T12:55:49;21.30;99.90
23579;DHT22;11967;50.852;4.400;2023-07-13T12:58:40;21.20;99.90
23579;DHT22;11967;50.852;4.400;2023-07-13T13:01:13;21.20;99.90
23579;DHT22;11967;50.852;4.400;2023-07-13T13:08:46;21.00;99.90
23579;DHT22;11967;50.852;4.400;2023-07-13T13:11:17;21.00;99.90
23579;DHT22;11967;50.852;4.400;2023-07-13T13:13:43;21.00;99.90
23579;DHT22;11967;50.852;4.400;2023-07-13T13:16:14;21.10;99.90
23579;DHT22;11967;50.852;4.400;2023-07-13T13:18:41;21.30;99.90
23579;DHT22;11967;50.852;4.400;2023-07-13T13:21:09;21.60;99.90
23579;DHT22;11967;50.852;4.400;2023-07-13T13:23:35;21.80;99.90
23579;DHT22;11967;50.852;4.400;2023-07-13T13:26:01;21.90;99.90
23579;DHT22;11967;50.852;4.400;2023-07-13T13:28:27;22.10;99.90
23579;DHT22;11967;50.852;4.400;2023-07-13T13:30:52;22.10;99.90
23579;DHT22;11967;50.852;4.400;2023-07-13T13:33:20;22.20;99.90
23579;DHT22;11967;50.852;4.400;2023-07-13T13:35:47;22.30;99.90
23579;DHT22;11967;50.852;4.400;2023-07-13T13:38:18;22.40;99.90
23579;DHT22;11967;50.852;4.400;2023-07-13T13:40:45;22.50;99.90
23579;DHT22;11967;50.852;4.400;2023-07-13T13:43:16;22.50;99.90
23579;DHT22;11967;50.852;4.400;2023-07-13T13:45:43;22.60;99.90
23579;DHT22;11967;50.852;4.400;2023-07-13T13:48:20;22.60;99.90
23579;DHT22;11967;50.852;4.400;2023-07-13T13:50:48;22.60;99.90
23579;DHT22;11967;50.852;4.400;2023-07-13T13:53:14;22.70;99.90
23579;DHT22;11967;50.852;4.400;2023-07-13T13:55:40;22.70;99.90
23579;DHT22;11967;50.852;4.400;2023-07-13T13:58:10;22.70;99.90
23579;DHT22;11967;50.852;4.400;2023-07-13T14:00:37;22.70;99.90
23579;DHT22;11967;50.852;4.400;2023-07-13T14:03:03;22.60;99.90
23579;DHT22;11967;50.852;4.400;2023-07-13T14:05:29;22.70;99.90
23579;DHT22;11967;50.852;4.400;2023-07-13T14:07:55;22.60;99.90
23579;DHT22;11967;50.852;4.400;2023-07-13T14:10:22;22.60;99.90
23579;DHT22;11967;50.852;4.400;2023-07-13T14:12:52;22.60;99.90
23579;DHT22;11967;50.852;4.400;2023-07-13T14:15:23;22.70;99.90
23579;DHT22;11967;50.852;4.400;2023-07-13T14:17:51;22.80;99.90
23579;DHT22;11967;50.852;4.400;2023-07-13T14:20:18;22.90;99.90
23579;DHT22;11967;50.852;4.400;2023-07-13T14:22:45;22.90;99.90
23579;DHT22;11967;50.852;4.400;2023-07-13T14:25:12;22.90;99.90
23579;DHT22;11967;50.852;4.400;2023-07-13T14:27:38;22.80;99.90
23579;DHT22;11967;50.852;4.400;2023-07-13T14:30:13;22.60;99.90
23579;DHT22;11967;50.852;4.400;2023-07-13T14:32:40;22.60;99.90
23579;DHT22;11967;50.852;4.400;2023-07-13T14:35:06;22.60;99.90
23579;DHT22;11967;50.852;4.400;2023-07-13T14:37:32;22.60;99.90
23579;DHT22;11967;50.852;4.400;2023-07-13T14:39:58;22.50;99.90
23579;DHT22;11967;50.852;4.400;2023-07-13T14:42:25;22.50;99.90
23579;DHT22;11967;50.852;4.400;2023-07-13T14:44:50;22.50;99.90
23579;DHT22;11967;50.852;4.400;2023-07-13T14:47:17;22.60;99.90
23579;DHT22;11967;50.852;4.400;2023-07-13T14:49:43;22.60;99.90
23579;DHT22;11967;50.852;4.400;2023-07-13T14:52:20;22.60;99.90
23579;DHT22;11967;50.852;4.400;2023-07-13T14:54:46;22.80;99.90
23579;DHT22;11967;50.852;4.400;2023-07-13T14:57:17;23.00;99.90
23579;DHT22;11967;50.852;4.400;2023-07-13T14:59:44;23.00;99.90
23579;DHT22;11967;50.852;4.400;2023-07-13T15:02:27;23.10;99.90
23579;DHT22;11967;50.852;4.400;2023-07-13T15:04:55;23.30;99.90
23579;DHT22;11967;50.852;4.400;2023-07-13T15:07:21;23.30;99.90
23579;DHT22;11967;50.852;4.400;2023-07-13T15:09:47;23.40;99.90
23579;DHT22;11967;50.852;4.400;2023-07-13T15:12:14;23.40;99.90
23579;DHT22;11967;50.852;4.400;2023-07-13T15:14:40;23.40;99.90
23579;DHT22;11967;50.852;4.400;2023-07-13T15:17:22;23.40;99.90
23579;DHT22;11967;50.852;4.400;2023-07-13T15:19:49;23.50;99.90
23579;DHT22;11967;50.852;4.400;2023-07-13T15:22:15;23.60;99.90
23579;DHT22;11967;50.852;4.400;2023-07-13T15:24:40;23.60;99.90
23579;DHT22;11967;50.852;4.400;2023-07-13T15:27:11;23.70;99.90
23579;DHT22;11967;50.852;4.400;2023-07-13T15:29:38;23.80;99.90
23579;DHT22;11967;50.852;4.400;2023-07-13T15:32:12;23.90;99.90
23579;DHT22;11967;50.852;4.400;2023-07-13T15:34:38;24.00;99.90
23579;DHT22;11967;50.852;4.400;2023-07-13T15:37:09;23.90;99.90
23579;DHT22;11967;50.852;4.400;2023-07-13T15:39:37;23.70;99.90
23579;DHT22;11967;50.852;4.400;2023-07-13T15:42:03;23.60;99.90
23579;DHT22;11967;50.852;4.400;2023-07-13T15:44:31;23.70;99.90
23579;DHT22;11967;50.852;4.400;2023-07-13T15:46:58;23.70;99.90
23579;DHT22;11967;50.852;4.400;2023-07-13T15:49:25;23.80;99.90
23579;DHT22;11967;50.852;4.400;2023-07-13T15:51:52;23.80;99.90
23579;DHT22;11967;50.852;4.400;2023-07-13T15:54:19;23.70;99.90
23579;DHT22;11967;50.852;4.400;2023-07-13T15:56:51;23.70;99.90
23579;DHT22;11967;50.852;4.400;2023-07-13T15:59:17;23.70;99.90
23579;DHT22;11967;50.852;4.400;2023-07-13T16:01:43;23.80;99.90
23579;DHT22;11967;50.852;4.400;2023-07-13T16:04:11;23.80;99.90
23579;DHT22;11967;50.852;4.400;2023-07-13T16:06:40;23.60;99.90
23579;DHT22;11967;50.852;4.400;2023-07-13T16:09:07;23.50;99.90
23579;DHT22;11967;50.852;4.400;2023-07-13T16:11:38;23.60;99.90